sensor_id;sensor_type;location;lat;lon;timestamp;P1;durP1;ratioP1;P2;durP2;ratioP2
14141;SDS011;7151;52.246;4.820;2023-07-09T00:02:24;7.47;;;4.60;;
14141;SDS011;7151;52.246;4.820;2023-07-09T00:04:51;7.75;;;4.63;;
14141;SDS011;7151;52.246;4.820;2023-07-09T00:09:49;7.25;;;4.85;;
14141;SDS011;7151;52.246;4.820;2023-07-09T00:12:16;6.00;;;4.97;;
14141;SDS011;7151;52.246;4.820;2023-07-09T00:14:42;5.95;;;4.65;;
14141;SDS011;7151;52.246;4.820;2023-07-09T00:17:15;5.88;;;5.00;;
14141;SDS011;7151;52.246;4.820;2023-07-09T00:19:46;9.90;;;4.78;;
14141;SDS011;7151;52.246;4.820;2023-07-09T00:22:15;6.57;;;4.70;;
14141;SDS011;7151;52.246;4.820;2023-07-09T00:24:43;12.32;;;5.20;;
14141;SDS011;7151;52.246;4.820;2023-07-09T00:27:12;9.48;;;5.15;;
14141;SDS011;7151;52.246;4.820;2023-07-09T00:29:40;5.60;;;4.75;;
14141;SDS011;7151;52.246;4.820;2023-07-09T00:32:15;7.95;;;5.47;;
14141;SDS011;7151;52.246;4.820;2023-07-09T00:34:48;6.37;;;4.60;;
14141;SDS011;7151;52.246;4.820;2023-07-09T00:37:18;6.75;;;5.20;;
14141;SDS011;7151;52.246;4.820;2023-07-09T00:39:47;6.78;;;4.82;;
14141;SDS011;7151;52.246;4.820;2023-07-09T00:42:14;6.50;;;4.87;;
14141;SDS011;7151;52.246;4.820;2023-07-09T00:44:43;6.23;;;4.60;;
14141;SDS011;7151;52.246;4.820;2023-07-09T00:47:23;5.30;;;4.43;;
14141;SDS011;7151;52.246;4.820;2023-07-09T00:50:03;7.93;;;5.18;;
14141;SDS011;7151;52.246;4.820;2023-07-09T00:52:32;5.10;;;4.40;;
14141;SDS011;7151;52.246;4.820;2023-07-09T00:55:04;6.33;;;4.30;;
14141;SDS011;7151;52.246;4.820;2023-07-09T00:57:37;6.50;;;4.50;;
14141;SDS011;7151;52.246;4.820;2023-07-09T01:00:05;5.05;;;4.50;;
14141;SDS011;7151;52.246;4.820;2023-07-09T01:02:37;5.50;;;3.88;;
14141;SDS011;7151;52.246;4.820;2023-07-09T01:05:08;6.07;;;4.80;;
14141;SDS011;7151;52.246;4.820;2023-07-09T01:07:36;6.40;;;4.40;;
14141;SDS011;7151;52.246;4.820;2023-07-09T01:10:02;6.82;;;4.28;;
14141;SDS011;7151;52.246;4.820;2023-07-09T01:12:28;5.93;;;4.33;;
14141;SDS011;7151;52.246;4.820;2023-07-09T01:14:55;5.97;;;4.50;;
14141;SDS011;7151;52.246;4.820;2023-07-09T01:17:24;7.30;;;4.43;;
14141;SDS011;7151;52.246;4.820;2023-07-09T01:19:52;6.50;;;4.95;;
14141;SDS011;7151;52.246;4.820;2023-07-09T01:22:20;7.67;;;4.97;;
14141;SDS011;7151;52.246;4.820;2023-07-09T01:24:48;5.67;;;4.60;;
14141;SDS011;7151;52.246;4.820;2023-07-09T01:27:32;9.15;;;5.07;;
14141;SDS011;7151;52.246;4.820;2023-07-09T01:30:05;5.40;;;4.60;;
14141;SDS011;7151;52.246;4.820;2023-07-09T01:32:33;9.07;;;4.45;;
14141;SDS011;7151;52.246;4.820;2023-07-09T01:35:00;8.45;;;4.78;;
14141;SDS011;7151;52.246;4.820;2023-07-09T01:37:32;7.97;;;4.60;;
14141;SDS011;7151;52.246;4.820;2023-07-09T01:40:04;7.47;;;4.57;;
14141;SDS011;7151;52.246;4.820;2023-07-09T01:42:34;7.30;;;4.17;;
14141;SDS011;7151;52.246;4.820;2023-07-09T01:45:01;6.37;;;4.73;;
14141;SDS011;7151;52.246;4.820;2023-07-09T01:47:29;6.90;;;4.77;;
14141;SDS011;7151;52.246;4.820;2023-07-09T01:49:55;8.83;;;5.03;;
14141;SDS011;7151;52.246;4.820;2023-07-09T01:52:22;9.97;;;5.30;;
14141;SDS011;7151;52.246;4.820;2023-07-09T01:54:49;5.93;;;4.60;;
14141;SDS011;7151;52.246;4.820;2023-07-09T01:59:50;7.93;;;4.70;;
14141;SDS011;7151;52.246;4.820;2023-07-09T02:02:17;6.53;;;4.43;;
14141;SDS011;7151;52.246;4.820;2023-07-09T02:04:51;7.67;;;4.70;;
14141;SDS011;7151;52.246;4.820;2023-07-09T02:07:18;5.83;;;4.57;;
14141;SDS011;7151;52.246;4.820;2023-07-09T02:09:45;6.03;;;4.17;;
14141;SDS011;7151;52.246;4.820;2023-07-09T02:12:12;6.77;;;4.63;;
14141;SDS011;7151;52.246;4.820;2023-07-09T02:14:38;5.63;;;4.40;;
14141;SDS011;7151;52.246;4.820;2023-07-09T02:17:05;7.37;;;4.70;;
14141;SDS011;7151;52.246;4.820;2023-07-09T02:19:31;7.03;;;4.43;;
14141;SDS011;7151;52.246;4.820;2023-07-09T02:21:57;7.50;;;5.10;;
14141;SDS011;7151;52.246;4.820;2023-07-09T02:24:23;6.57;;;5.00;;
14141;SDS011;7151;52.246;4.820;2023-07-09T02:26:53;6.67;;;4.67;;
14141;SDS011;7151;52.246;4.820;2023-07-09T02:29:19;5.37;;;4.53;;
14141;SDS011;7151;52.246;4.820;2023-07-09T02:31:45;8.67;;;5.40;;
14141;SDS011;7151;52.246;4.820;2023-07-09T02:34:13;6.67;;;5.17;;
14141;SDS011;7151;52.246;4.820;2023-07-09T02:36:38;7.30;;;4.77;;
14141;SDS011;7151;52.246;4.820;2023-07-09T02:39:08;7.23;;;5.30;;
14141;SDS011;7151;52.246;4.820;2023-07-09T02:41:35;8.00;;;4.83;;
14141;SDS011;7151;52.246;4.820;2023-07-09T02:44:01;8.10;;;4.87;;
14141;SDS011;7151;52.246;4.820;2023-07-09T02:46:26;7.07;;;4.73;;
14141;SDS011;7151;52.246;4.820;2023-07-09T02:48:52;8.93;;;5.20;;
14141;SDS011;7151;52.246;4.820;2023-07-09T02:51:17;9.83;;;4.83;;
14141;SDS011;7151;52.246;4.820;2023-07-09T02:53:43;9.10;;;5.27;;
14141;SDS011;7151;52.246;4.820;2023-07-09T02:56:08;7.83;;;5.10;;
14141;SDS011;7151;52.246;4.820;2023-07-09T02:58:34;9.07;;;5.37;;
14141;SDS011;7151;52.246;4.820;2023-07-09T03:00:59;7.10;;;5.60;;
14141;SDS011;7151;52.246;4.820;2023-07-09T03:03:25;8.77;;;5.10;;
14141;SDS011;7151;52.246;4.820;2023-07-09T03:05:50;8.37;;;5.70;;
14141;SDS011;7151;52.246;4.820;2023-07-09T03:08:16;6.23;;;5.33;;
14141;SDS011;7151;52.246;4.820;2023-07-09T03:10:41;7.70;;;5.70;;
14141;SDS011;7151;52.246;4.820;2023-07-09T03:13:07;6.43;;;5.13;;
14141;SDS011;7151;52.246;4.820;2023-07-09T03:15:32;7.70;;;5.97;;
14141;SDS011;7151;52.246;4.820;2023-07-09T03:17:58;7.13;;;5.63;;
14141;SDS011;7151;52.246;4.820;2023-07-09T03:20:23;6.57;;;5.37;;
14141;SDS011;7151;52.246;4.820;2023-07-09T03:22:50;8.53;;;5.83;;
14141;SDS011;7151;52.246;4.820;2023-07-09T03:25:15;7.73;;;5.53;;
14141;SDS011;7151;52.246;4.820;2023-07-09T03:27:41;8.40;;;5.23;;
14141;SDS011;7151;52.246;4.820;2023-07-09T03:30:06;6.80;;;5.43;;
14141;SDS011;7151;52.246;4.820;2023-07-09T03:32:32;7.50;;;6.00;;
14141;SDS011;7151;52.246;4.820;2023-07-09T03:34:58;7.23;;;4.73;;
14141;SDS011;7151;52.246;4.820;2023-07-09T03:37:23;8.73;;;6.07;;
14141;SDS011;7151;52.246;4.820;2023-07-09T03:39:49;6.17;;;5.47;;
14141;SDS011;7151;52.246;4.820;2023-07-09T03:42:14;8.30;;;5.13;;
14141;SDS011;7151;52.246;4.820;2023-07-09T03:44:40;8.23;;;6.03;;
14141;SDS011;7151;52.246;4.820;2023-07-09T03:47:06;6.13;;;5.37;;
14141;SDS011;7151;52.246;4.820;2023-07-09T03:49:32;6.23;;;4.93;;
14141;SDS011;7151;52.246;4.820;2023-07-09T03:51:57;8.50;;;6.00;;
14141;SDS011;7151;52.246;4.820;2023-07-09T03:54:23;7.67;;;5.77;;
14141;SDS011;7151;52.246;4.820;2023-07-09T03:56:49;8.43;;;5.73;;
14141;SDS011;7151;52.246;4.820;2023-07-09T03:59:14;9.30;;;6.10;;
14141;SDS011;7151;52.246;4.820;2023-07-09T04:01:40;6.40;;;5.07;;
14141;SDS011;7151;52.246;4.820;2023-07-09T04:04:10;10.47;;;5.97;;
14141;SDS011;7151;52.246;4.820;2023-07-09T04:06:37;7.57;;;5.80;;
14141;SDS011;7151;52.246;4.820;2023-07-09T04:09:02;8.77;;;6.13;;
14141;SDS011;7151;52.246;4.820;2023-07-09T04:11:28;7.93;;;6.37;;
14141;SDS011;7151;52.246;4.820;2023-07-09T04:13:53;9.03;;;6.43;;
14141;SDS011;7151;52.246;4.820;2023-07-09T04:16:19;6.73;;;5.60;;
14141;SDS011;7151;52.246;4.820;2023-07-09T04:18:45;7.50;;;5.40;;
14141;SDS011;7151;52.246;4.820;2023-07-09T04:21:10;6.70;;;5.43;;
14141;SDS011;7151;52.246;4.820;2023-07-09T04:23:36;10.10;;;5.83;;
14141;SDS011;7151;52.246;4.820;2023-07-09T04:26:01;8.90;;;5.60;;
14141;SDS011;7151;52.246;4.820;2023-07-09T04:28:28;9.97;;;6.47;;
14141;SDS011;7151;52.246;4.820;2023-07-09T04:30:55;7.33;;;5.97;;
14141;SDS011;7151;52.246;4.820;2023-07-09T04:33:21;10.73;;;7.07;;
14141;SDS011;7151;52.246;4.820;2023-07-09T04:35:46;8.17;;;6.43;;
14141;SDS011;7151;52.246;4.820;2023-07-09T04:38:13;8.60;;;6.00;;
14141;SDS011;7151;52.246;4.820;2023-07-09T04:40:39;8.57;;;6.17;;
14141;SDS011;7151;52.246;4.820;2023-07-09T04:43:05;9.93;;;7.00;;
14141;SDS011;7151;52.246;4.820;2023-07-09T04:45:31;7.83;;;5.73;;
14141;SDS011;7151;52.246;4.820;2023-07-09T04:47:57;7.27;;;5.67;;
14141;SDS011;7151;52.246;4.820;2023-07-09T04:50:22;6.40;;;5.43;;
14141;SDS011;7151;52.246;4.820;2023-07-09T04:52:48;9.80;;;6.30;;
14141;SDS011;7151;52.246;4.820;2023-07-09T04:55:13;6.37;;;5.50;;
14141;SDS011;7151;52.246;4.820;2023-07-09T04:57:39;8.50;;;6.20;;
14141;SDS011;7151;52.246;4.820;2023-07-09T05:00:05;8.47;;;6.40;;
14141;SDS011;7151;52.246;4.820;2023-07-09T05:02:31;7.67;;;5.73;;
14141;SDS011;7151;52.246;4.820;2023-07-09T05:04:56;9.27;;;5.93;;
14141;SDS011;7151;52.246;4.820;2023-07-09T05:07:22;7.93;;;5.83;;
14141;SDS011;7151;52.246;4.820;2023-07-09T05:09:47;8.40;;;5.70;;
14141;SDS011;7151;52.246;4.820;2023-07-09T05:12:13;9.00;;;6.30;;
14141;SDS011;7151;52.246;4.820;2023-07-09T05:14:39;6.90;;;5.83;;
14141;SDS011;7151;52.246;4.820;2023-07-09T05:17:05;10.40;;;6.30;;
14141;SDS011;7151;52.246;4.820;2023-07-09T05:19:31;7.83;;;5.63;;
14141;SDS011;7151;52.246;4.820;2023-07-09T05:22:00;9.27;;;6.17;;
14141;SDS011;7151;52.246;4.820;2023-07-09T05:24:25;8.93;;;6.70;;
14141;SDS011;7151;52.246;4.820;2023-07-09T05:26:51;8.30;;;6.23;;
14141;SDS011;7151;52.246;4.820;2023-07-09T05:29:17;7.13;;;5.60;;
14141;SDS011;7151;52.246;4.820;2023-07-09T05:31:42;9.70;;;5.93;;
14141;SDS011;7151;52.246;4.820;2023-07-09T05:34:08;7.57;;;6.13;;
14141;SDS011;7151;52.246;4.820;2023-07-09T05:36:33;10.17;;;6.20;;
14141;SDS011;7151;52.246;4.820;2023-07-09T05:38:59;11.67;;;6.00;;
14141;SDS011;7151;52.246;4.820;2023-07-09T05:41:25;8.07;;;6.20;;
14141;SDS011;7151;52.246;4.820;2023-07-09T05:43:51;8.63;;;6.60;;
14141;SDS011;7151;52.246;4.820;2023-07-09T05:46:17;8.77;;;6.43;;
14141;SDS011;7151;52.246;4.820;2023-07-09T05:48:44;10.40;;;6.13;;
14141;SDS011;7151;52.246;4.820;2023-07-09T05:51:09;11.57;;;6.37;;
14141;SDS011;7151;52.246;4.820;2023-07-09T05:53:35;9.53;;;6.73;;
14141;SDS011;7151;52.246;4.820;2023-07-09T05:56:01;10.10;;;6.57;;
14141;SDS011;7151;52.246;4.820;2023-07-09T05:58:26;9.00;;;6.87;;
14141;SDS011;7151;52.246;4.820;2023-07-09T06:00:52;11.23;;;7.70;;
14141;SDS011;7151;52.246;4.820;2023-07-09T06:03:19;11.70;;;7.60;;
14141;SDS011;7151;52.246;4.820;2023-07-09T06:05:46;11.50;;;8.37;;
14141;SDS011;7151;52.246;4.820;2023-07-09T06:08:14;9.40;;;8.23;;
14141;SDS011;7151;52.246;4.820;2023-07-09T06:10:49;12.57;;;7.87;;
14141;SDS011;7151;52.246;4.820;2023-07-09T06:13:19;11.63;;;8.13;;
14141;SDS011;7151;52.246;4.820;2023-07-09T06:15:46;10.50;;;8.87;;
14141;SDS011;7151;52.246;4.820;2023-07-09T06:18:13;11.70;;;8.87;;
14141;SDS011;7151;52.246;4.820;2023-07-09T06:20:38;11.37;;;8.30;;
14141;SDS011;7151;52.246;4.820;2023-07-09T06:23:04;12.23;;;8.50;;
14141;SDS011;7151;52.246;4.820;2023-07-09T06:25:29;13.50;;;8.67;;
14141;SDS011;7151;52.246;4.820;2023-07-09T06:27:55;11.80;;;9.20;;
14141;SDS011;7151;52.246;4.820;2023-07-09T06:30:22;11.37;;;9.10;;
14141;SDS011;7151;52.246;4.820;2023-07-09T06:32:47;13.50;;;9.43;;
14141;SDS011;7151;52.246;4.820;2023-07-09T06:35:13;17.13;;;10.47;;
14141;SDS011;7151;52.246;4.820;2023-07-09T06:37:38;11.33;;;9.63;;
14141;SDS011;7151;52.246;4.820;2023-07-09T06:40:04;12.07;;;9.00;;
14141;SDS011;7151;52.246;4.820;2023-07-09T06:42:32;16.03;;;10.27;;
14141;SDS011;7151;52.246;4.820;2023-07-09T06:44:57;11.70;;;9.50;;
14141;SDS011;7151;52.246;4.820;2023-07-09T06:47:23;13.43;;;10.30;;
14141;SDS011;7151;52.246;4.820;2023-07-09T06:49:49;13.10;;;10.77;;
14141;SDS011;7151;52.246;4.820;2023-07-09T06:52:14;12.17;;;9.43;;
14141;SDS011;7151;52.246;4.820;2023-07-09T06:54:40;16.97;;;9.43;;
14141;SDS011;7151;52.246;4.820;2023-07-09T06:57:05;16.70;;;10.80;;
14141;SDS011;7151;52.246;4.820;2023-07-09T06:59:31;15.10;;;9.50;;
14141;SDS011;7151;52.246;4.820;2023-07-09T07:01:56;15.00;;;9.63;;
14141;SDS011;7151;52.246;4.820;2023-07-09T07:04:22;11.18;;;8.48;;
14141;SDS011;7151;52.246;4.820;2023-07-09T07:06:50;10.07;;;7.95;;
14141;SDS011;7151;52.246;4.820;2023-07-09T07:09:15;8.90;;;7.30;;
14141;SDS011;7151;52.246;4.820;2023-07-09T07:11:41;8.37;;;6.03;;
14141;SDS011;7151;52.246;4.820;2023-07-09T07:14:06;8.25;;;6.28;;
14141;SDS011;7151;52.246;4.820;2023-07-09T07:16:32;9.87;;;7.30;;
14141;SDS011;7151;52.246;4.820;2023-07-09T07:18:57;12.77;;;7.37;;
14141;SDS011;7151;52.246;4.820;2023-07-09T07:21:23;9.75;;;7.13;;
14141;SDS011;7151;52.246;4.820;2023-07-09T07:23:48;9.10;;;7.43;;
14141;SDS011;7151;52.246;4.820;2023-07-09T07:26:14;11.43;;;8.20;;
14141;SDS011;7151;52.246;4.820;2023-07-09T07:28:39;11.30;;;7.93;;
14141;SDS011;7151;52.246;4.820;2023-07-09T07:31:06;12.63;;;8.80;;
14141;SDS011;7151;52.246;4.820;2023-07-09T07:33:33;9.20;;;7.10;;
14141;SDS011;7151;52.246;4.820;2023-07-09T07:35:59;11.50;;;6.40;;
14141;SDS011;7151;52.246;4.820;2023-07-09T07:38:25;8.07;;;5.53;;
14141;SDS011;7151;52.246;4.820;2023-07-09T07:40:50;8.07;;;5.70;;
14141;SDS011;7151;52.246;4.820;2023-07-09T07:43:16;8.43;;;6.40;;
14141;SDS011;7151;52.246;4.820;2023-07-09T07:45:42;8.75;;;6.18;;
14141;SDS011;7151;52.246;4.820;2023-07-09T07:48:09;8.10;;;5.80;;
14141;SDS011;7151;52.246;4.820;2023-07-09T07:50:34;9.73;;;5.50;;
14141;SDS011;7151;52.246;4.820;2023-07-09T07:53:00;10.30;;;6.23;;
14141;SDS011;7151;52.246;4.820;2023-07-09T07:55:26;7.80;;;5.38;;
14141;SDS011;7151;52.246;4.820;2023-07-09T07:57:52;5.90;;;4.95;;
14141;SDS011;7151;52.246;4.820;2023-07-09T08:00:18;6.27;;;5.53;;
14141;SDS011;7151;52.246;4.820;2023-07-09T08:02:43;7.80;;;5.67;;
14141;SDS011;7151;52.246;4.820;2023-07-09T08:05:09;6.93;;;4.83;;
14141;SDS011;7151;52.246;4.820;2023-07-09T08:07:35;8.18;;;5.28;;
14141;SDS011;7151;52.246;4.820;2023-07-09T08:10:00;6.88;;;5.28;;
14141;SDS011;7151;52.246;4.820;2023-07-09T08:12:26;7.17;;;4.77;;
14141;SDS011;7151;52.246;4.820;2023-07-09T08:14:51;7.88;;;4.65;;
14141;SDS011;7151;52.246;4.820;2023-07-09T08:17:17;5.05;;;3.92;;
14141;SDS011;7151;52.246;4.820;2023-07-09T08:19:50;6.03;;;4.25;;
14141;SDS011;7151;52.246;4.820;2023-07-09T08:22:18;4.60;;;3.95;;
14141;SDS011;7151;52.246;4.820;2023-07-09T08:24:45;3.63;;;2.50;;
14141;SDS011;7151;52.246;4.820;2023-07-09T08:27:11;5.18;;;3.47;;
14141;SDS011;7151;52.246;4.820;2023-07-09T08:29:36;4.07;;;3.25;;
14141;SDS011;7151;52.246;4.820;2023-07-09T08:32:02;7.07;;;3.50;;
14141;SDS011;7151;52.246;4.820;2023-07-09T08:34:28;4.45;;;3.58;;
14141;SDS011;7151;52.246;4.820;2023-07-09T08:36:54;4.10;;;3.17;;
14141;SDS011;7151;52.246;4.820;2023-07-09T08:39:21;4.50;;;3.42;;
14141;SDS011;7151;52.246;4.820;2023-07-09T08:42:01;3.90;;;2.88;;
14141;SDS011;7151;52.246;4.820;2023-07-09T08:49:56;4.72;;;3.20;;
14141;SDS011;7151;52.246;4.820;2023-07-09T08:52:36;4.65;;;3.20;;
14141;SDS011;7151;52.246;4.820;2023-07-09T08:55:17;3.45;;;2.97;;
14141;SDS011;7151;52.246;4.820;2023-07-09T08:57:47;5.75;;;3.53;;
14141;SDS011;7151;52.246;4.820;2023-07-09T09:00:18;11.32;;;3.58;;
14141;SDS011;7151;52.246;4.820;2023-07-09T09:02:55;4.10;;;3.47;;
14141;SDS011;7151;52.246;4.820;2023-07-09T09:05:23;4.43;;;3.70;;
14141;SDS011;7151;52.246;4.820;2023-07-09T09:08:15;7.90;;;3.92;;
14141;SDS011;7151;52.246;4.820;2023-07-09T09:10:56;4.50;;;3.50;;
14141;SDS011;7151;52.246;4.820;2023-07-09T09:13:31;7.18;;;4.43;;
14141;SDS011;7151;52.246;4.820;2023-07-09T09:15:59;4.65;;;3.78;;
14141;SDS011;7151;52.246;4.820;2023-07-09T09:18:31;9.00;;;4.35;;
14141;SDS011;7151;52.246;4.820;2023-07-09T09:21:21;5.15;;;3.63;;
14141;SDS011;7151;52.246;4.820;2023-07-09T09:23:52;4.70;;;4.00;;
14141;SDS011;7151;52.246;4.820;2023-07-09T09:28:59;4.10;;;3.40;;
14141;SDS011;7151;52.246;4.820;2023-07-09T09:31:28;4.93;;;4.43;;
14141;SDS011;7151;52.246;4.820;2023-07-09T09:33:54;7.25;;;4.90;;
14141;SDS011;7151;52.246;4.820;2023-07-09T09:36:24;6.75;;;4.38;;
14141;SDS011;7151;52.246;4.820;2023-07-09T09:38:51;6.70;;;4.60;;
14141;SDS011;7151;52.246;4.820;2023-07-09T09:41:19;7.95;;;4.57;;
14141;SDS011;7151;52.246;4.820;2023-07-09T09:43:46;5.53;;;3.95;;
14141;SDS011;7151;52.246;4.820;2023-07-09T09:46:20;6.20;;;4.28;;
14141;SDS011;7151;52.246;4.820;2023-07-09T09:48:48;7.10;;;4.15;;
14141;SDS011;7151;52.246;4.820;2023-07-09T09:51:16;4.32;;;3.67;;
14141;SDS011;7151;52.246;4.820;2023-07-09T09:53:49;4.22;;;3.83;;
14141;SDS011;7151;52.246;4.820;2023-07-09T09:56:18;6.05;;;3.83;;
14141;SDS011;7151;52.246;4.820;2023-07-09T09:58:55;4.55;;;3.53;;
14141;SDS011;7151;52.246;4.820;2023-07-09T10:01:26;5.13;;;4.25;;
14141;SDS011;7151;52.246;4.820;2023-07-09T10:03:55;6.63;;;3.58;;
14141;SDS011;7151;52.246;4.820;2023-07-09T10:06:34;4.75;;;3.50;;
14141;SDS011;7151;52.246;4.820;2023-07-09T10:09:10;5.28;;;3.45;;
14141;SDS011;7151;52.246;4.820;2023-07-09T10:12:04;7.63;;;4.53;;
14141;SDS011;7151;52.246;4.820;2023-07-09T10:14:49;5.38;;;4.13;;
14141;SDS011;7151;52.246;4.820;2023-07-09T10:17:31;10.85;;;4.85;;
14141;SDS011;7151;52.246;4.820;2023-07-09T10:20:19;5.57;;;4.25;;
14141;SDS011;7151;52.246;4.820;2023-07-09T10:25:53;4.55;;;4.07;;
14141;SDS011;7151;52.246;4.820;2023-07-09T10:31:21;7.07;;;5.13;;
14141;SDS011;7151;52.246;4.820;2023-07-09T10:39:37;6.55;;;3.95;;
14141;SDS011;7151;52.246;4.820;2023-07-09T10:42:07;6.07;;;3.78;;
14141;SDS011;7151;52.246;4.820;2023-07-09T10:44:42;6.70;;;4.90;;
14141;SDS011;7151;52.246;4.820;2023-07-09T10:47:25;5.38;;;4.18;;
14141;SDS011;7151;52.246;4.820;2023-07-09T10:50:02;4.38;;;3.97;;
14141;SDS011;7151;52.246;4.820;2023-07-09T10:52:32;5.72;;;4.65;;
14141;SDS011;7151;52.246;4.820;2023-07-09T11:00:27;4.90;;;4.10;;
14141;SDS011;7151;52.246;4.820;2023-07-09T11:03:03;6.13;;;4.43;;
14141;SDS011;7151;52.246;4.820;2023-07-09T11:05:36;4.55;;;3.90;;
14141;SDS011;7151;52.246;4.820;2023-07-09T11:08:13;5.72;;;4.55;;
14141;SDS011;7151;52.246;4.820;2023-07-09T11:10:49;5.25;;;4.20;;
14141;SDS011;7151;52.246;4.820;2023-07-09T11:13:19;5.05;;;3.90;;
14141;SDS011;7151;52.246;4.820;2023-07-09T11:16:11;5.78;;;3.80;;
14141;SDS011;7151;52.246;4.820;2023-07-09T11:18:52;5.85;;;4.38;;
14141;SDS011;7151;52.246;4.820;2023-07-09T11:21:20;6.47;;;4.53;;
14141;SDS011;7151;52.246;4.820;2023-07-09T11:23:49;6.03;;;3.80;;
14141;SDS011;7151;52.246;4.820;2023-07-09T11:26:24;7.35;;;4.70;;
14141;SDS011;7151;52.246;4.820;2023-07-09T11:28:51;7.28;;;4.78;;
14141;SDS011;7151;52.246;4.820;2023-07-09T11:31:21;5.43;;;4.65;;
14141;SDS011;7151;52.246;4.820;2023-07-09T11:33:59;6.35;;;4.72;;
14141;SDS011;7151;52.246;4.820;2023-07-09T11:36:30;5.97;;;4.72;;
14141;SDS011;7151;52.246;4.820;2023-07-09T11:38:56;5.85;;;4.57;;
14141;SDS011;7151;52.246;4.820;2023-07-09T11:41:41;6.22;;;4.85;;
14141;SDS011;7151;52.246;4.820;2023-07-09T11:52:14;8.35;;;5.40;;
14141;SDS011;7151;52.246;4.820;2023-07-09T11:54:47;7.90;;;5.65;;
14141;SDS011;7151;52.246;4.820;2023-07-09T11:57:12;12.57;;;5.30;;
14141;SDS011;7151;52.246;4.820;2023-07-09T11:59:41;7.32;;;5.05;;
14141;SDS011;7151;52.246;4.820;2023-07-09T12:02:15;5.80;;;4.40;;
14141;SDS011;7151;52.246;4.820;2023-07-09T12:04:43;8.05;;;4.85;;
14141;SDS011;7151;52.246;4.820;2023-07-09T12:07:12;5.35;;;4.22;;
14141;SDS011;7151;52.246;4.820;2023-07-09T12:09:41;7.28;;;4.88;;
14141;SDS011;7151;52.246;4.820;2023-07-09T12:12:24;7.55;;;4.40;;
14141;SDS011;7151;52.246;4.820;2023-07-09T12:14:51;5.53;;;4.90;;
14141;SDS011;7151;52.246;4.820;2023-07-09T12:17:17;6.30;;;4.32;;
14141;SDS011;7151;52.246;4.820;2023-07-09T12:19:43;7.55;;;4.05;;
14141;SDS011;7151;52.246;4.820;2023-07-09T12:22:19;7.20;;;4.80;;
14141;SDS011;7151;52.246;4.820;2023-07-09T12:24:46;4.50;;;3.33;;
14141;SDS011;7151;52.246;4.820;2023-07-09T12:27:19;3.88;;;2.80;;
14141;SDS011;7151;52.246;4.820;2023-07-09T12:29:46;5.10;;;3.10;;
14141;SDS011;7151;52.246;4.820;2023-07-09T12:32:13;5.50;;;2.50;;
14141;SDS011;7151;52.246;4.820;2023-07-09T12:34:42;8.85;;;3.15;;
14141;SDS011;7151;52.246;4.820;2023-07-09T12:37:18;6.13;;;2.15;;
14141;SDS011;7151;52.246;4.820;2023-07-09T12:39:47;4.65;;;2.45;;
14141;SDS011;7151;52.246;4.820;2023-07-09T12:42:18;3.40;;;1.88;;
14141;SDS011;7151;52.246;4.820;2023-07-09T12:44:49;2.88;;;2.22;;
14141;SDS011;7151;52.246;4.820;2023-07-09T12:47:23;6.28;;;2.47;;
14141;SDS011;7151;52.246;4.820;2023-07-09T12:49:49;3.53;;;2.50;;
14141;SDS011;7151;52.246;4.820;2023-07-09T12:52:21;4.18;;;2.35;;
14141;SDS011;7151;52.246;4.820;2023-07-09T12:54:57;4.13;;;2.70;;
14141;SDS011;7151;52.246;4.820;2023-07-09T12:57:24;5.47;;;2.72;;
14141;SDS011;7151;52.246;4.820;2023-07-09T12:59:51;7.47;;;2.92;;
14141;SDS011;7151;52.246;4.820;2023-07-09T13:02:18;6.45;;;3.17;;
14141;SDS011;7151;52.246;4.820;2023-07-09T13:04:44;4.47;;;2.55;;
14141;SDS011;7151;52.246;4.820;2023-07-09T13:09:53;9.23;;;3.28;;
14141;SDS011;7151;52.246;4.820;2023-07-09T13:12:20;4.53;;;2.70;;
14141;SDS011;7151;52.246;4.820;2023-07-09T13:14:53;5.68;;;2.63;;
14141;SDS011;7151;52.246;4.820;2023-07-09T13:17:19;5.70;;;2.90;;
14141;SDS011;7151;52.246;4.820;2023-07-09T13:19:45;6.05;;;2.80;;
14141;SDS011;7151;52.246;4.820;2023-07-09T13:22:14;5.57;;;3.05;;
14141;SDS011;7151;52.246;4.820;2023-07-09T13:24:41;4.75;;;2.78;;
14141;SDS011;7151;52.246;4.820;2023-07-09T13:27:13;7.60;;;2.75;;
14141;SDS011;7151;52.246;4.820;2023-07-09T13:29:41;5.30;;;2.80;;
14141;SDS011;7151;52.246;4.820;2023-07-09T13:32:14;6.97;;;2.60;;
14141;SDS011;7151;52.246;4.820;2023-07-09T13:34:41;5.60;;;2.95;;
14141;SDS011;7151;52.246;4.820;2023-07-09T13:37:14;8.98;;;2.95;;
14141;SDS011;7151;52.246;4.820;2023-07-09T13:39:40;6.90;;;3.10;;
14141;SDS011;7151;52.246;4.820;2023-07-09T13:42:11;6.50;;;2.90;;
14141;SDS011;7151;52.246;4.820;2023-07-09T13:44:38;6.85;;;3.53;;
14141;SDS011;7151;52.246;4.820;2023-07-09T13:47:08;7.68;;;3.90;;
14141;SDS011;7151;52.246;4.820;2023-07-09T13:49:42;7.57;;;3.85;;
14141;SDS011;7151;52.246;4.820;2023-07-09T13:52:12;6.80;;;3.58;;
14141;SDS011;7151;52.246;4.820;2023-07-09T13:54:44;7.43;;;4.53;;
14141;SDS011;7151;52.246;4.820;2023-07-09T13:57:13;6.35;;;4.35;;
14141;SDS011;7151;52.246;4.820;2023-07-09T13:59:41;9.30;;;5.22;;
14141;SDS011;7151;52.246;4.820;2023-07-09T14:02:15;7.63;;;4.85;;
14141;SDS011;7151;52.246;4.820;2023-07-09T14:04:51;5.68;;;4.30;;
14141;SDS011;7151;52.246;4.820;2023-07-09T14:07:31;5.80;;;4.63;;
14141;SDS011;7151;52.246;4.820;2023-07-09T14:09:58;7.32;;;4.03;;
14141;SDS011;7151;52.246;4.820;2023-07-09T14:12:25;6.53;;;4.13;;
14141;SDS011;7151;52.246;4.820;2023-07-09T14:14:52;6.88;;;3.60;;
14141;SDS011;7151;52.246;4.820;2023-07-09T14:17:20;8.50;;;3.65;;
14141;SDS011;7151;52.246;4.820;2023-07-09T14:19:48;6.45;;;3.50;;
14141;SDS011;7151;52.246;4.820;2023-07-09T14:22:25;7.13;;;3.50;;
14141;SDS011;7151;52.246;4.820;2023-07-09T14:24:57;8.43;;;3.85;;
14141;SDS011;7151;52.246;4.820;2023-07-09T14:27:23;7.25;;;4.68;;
14141;SDS011;7151;52.246;4.820;2023-07-09T14:29:50;6.00;;;4.35;;
14141;SDS011;7151;52.246;4.820;2023-07-09T14:32:32;6.18;;;4.15;;
14141;SDS011;7151;52.246;4.820;2023-07-09T14:34:58;5.20;;;3.33;;
14141;SDS011;7151;52.246;4.820;2023-07-09T14:37:25;9.65;;;2.92;;
14141;SDS011;7151;52.246;4.820;2023-07-09T14:39:51;4.20;;;3.15;;
14141;SDS011;7151;52.246;4.820;2023-07-09T14:42:17;8.98;;;2.97;;
14141;SDS011;7151;52.246;4.820;2023-07-09T14:44:43;4.95;;;3.10;;
14141;SDS011;7151;52.246;4.820;2023-07-09T14:47:16;3.30;;;3.00;;
14141;SDS011;7151;52.246;4.820;2023-07-09T14:49:43;6.32;;;3.10;;
14141;SDS011;7151;52.246;4.820;2023-07-09T14:52:13;3.15;;;2.78;;
14141;SDS011;7151;52.246;4.820;2023-07-09T14:54:42;9.07;;;4.30;;
14141;SDS011;7151;52.246;4.820;2023-07-09T14:57:11;12.88;;;5.05;;
14141;SDS011;7151;52.246;4.820;2023-07-09T14:59:49;8.88;;;4.70;;
14141;SDS011;7151;52.246;4.820;2023-07-09T15:02:32;11.50;;;4.18;;
14141;SDS011;7151;52.246;4.820;2023-07-09T15:05:00;8.23;;;3.80;;
14141;SDS011;7151;52.246;4.820;2023-07-09T15:07:32;7.60;;;3.50;;
14141;SDS011;7151;52.246;4.820;2023-07-09T15:09:59;6.20;;;3.67;;
14141;SDS011;7151;52.246;4.820;2023-07-09T15:12:26;6.43;;;3.67;;
14141;SDS011;7151;52.246;4.820;2023-07-09T15:14:57;5.57;;;3.60;;
14141;SDS011;7151;52.246;4.820;2023-07-09T15:17:44;8.87;;;3.33;;
14141;SDS011;7151;52.246;4.820;2023-07-09T15:20:16;4.57;;;3.17;;
14141;SDS011;7151;52.246;4.820;2023-07-09T15:22:50;6.30;;;2.77;;
14141;SDS011;7151;52.246;4.820;2023-07-09T15:25:19;9.13;;;3.97;;
14141;SDS011;7151;52.246;4.820;2023-07-09T15:27:46;6.37;;;4.10;;
14141;SDS011;7151;52.246;4.820;2023-07-09T15:30:16;4.37;;;3.40;;
14141;SDS011;7151;52.246;4.820;2023-07-09T15:32:47;5.20;;;3.20;;
14141;SDS011;7151;52.246;4.820;2023-07-09T15:35:14;7.70;;;3.50;;
14141;SDS011;7151;52.246;4.820;2023-07-09T15:37:41;8.30;;;4.23;;
14141;SDS011;7151;52.246;4.820;2023-07-09T15:40:16;5.80;;;3.40;;
14141;SDS011;7151;52.246;4.820;2023-07-09T15:42:51;4.10;;;3.37;;
14141;SDS011;7151;52.246;4.820;2023-07-09T15:45:19;7.47;;;3.87;;
14141;SDS011;7151;52.246;4.820;2023-07-09T15:47:45;5.50;;;3.40;;
14141;SDS011;7151;52.246;4.820;2023-07-09T15:50:13;6.00;;;4.10;;
14141;SDS011;7151;52.246;4.820;2023-07-09T15:52:45;8.33;;;4.57;;